sensor_id;sensor_type;location;lat;lon;timestamp;P1;durP1;ratioP1;P2;durP2;ratioP2
7529;SDS011;3806;52.270;10.544;2024-02-26T00:00:33;3.05;;;1.85;;
7529;SDS011;3806;52.270;10.544;2024-02-26T00:02:59;2.35;;;1.58;;
7529;SDS011;3806;52.270;10.544;2024-02-26T00:05:25;4.63;;;2.13;;
7529;SDS011;3806;52.270;10.544;2024-02-26T00:07:51;2.42;;;1.80;;
7529;SDS011;3806;52.270;10.544;2024-02-26T00:10:17;3.63;;;1.55;;
7529;SDS011;3806;52.270;10.544;2024-02-26T00:12:42;4.38;;;2.22;;
7529;SDS011;3806;52.270;10.544;2024-02-26T00:15:08;2.45;;;1.60;;
7529;SDS011;3806;52.270;10.544;2024-02-26T00:17:36;3.10;;;2.25;;
7529;SDS011;3806;52.270;10.544;2024-02-26T00:20:02;1.73;;;1.40;;
7529;SDS011;3806;52.270;10.544;2024-02-26T00:22:34;2.33;;;1.85;;
7529;SDS011;3806;52.270;10.544;2024-02-26T00:25:00;2.17;;;1.33;;
7529;SDS011;3806;52.270;10.544;2024-02-26T00:27:26;2.38;;;1.50;;
7529;SDS011;3806;52.270;10.544;2024-02-26T00:29:51;3.05;;;1.50;;
7529;SDS011;3806;52.270;10.544;2024-02-26T00:32:17;2.83;;;1.50;;
7529;SDS011;3806;52.270;10.544;2024-02-26T00:34:43;1.90;;;1.35;;
7529;SDS011;3806;52.270;10.544;2024-02-26T00:37:08;2.63;;;1.75;;
7529;SDS011;3806;52.270;10.544;2024-02-26T00:39:34;2.75;;;1.25;;
7529;SDS011;3806;52.270;10.544;2024-02-26T00:41:59;4.55;;;1.45;;
7529;SDS011;3806;52.270;10.544;2024-02-26T00:44:25;1.65;;;1.30;;
7529;SDS011;3806;52.270;10.544;2024-02-26T00:46:50;2.65;;;1.70;;
7529;SDS011;3806;52.270;10.544;2024-02-26T00:49:15;5.63;;;1.60;;
7529;SDS011;3806;52.270;10.544;2024-02-26T00:51:41;2.17;;;1.73;;
7529;SDS011;3806;52.270;10.544;2024-02-26T00:54:06;3.10;;;1.85;;
7529;SDS011;3806;52.270;10.544;2024-02-26T00:56:32;2.60;;;1.58;;
7529;SDS011;3806;52.270;10.544;2024-02-26T00:58:58;2.35;;;1.98;;
7529;SDS011;3806;52.270;10.544;2024-02-26T01:01:23;2.67;;;1.65;;
7529;SDS011;3806;52.270;10.544;2024-02-26T01:03:49;1.85;;;1.33;;
7529;SDS011;3806;52.270;10.544;2024-02-26T01:06:14;5.30;;;1.85;;
7529;SDS011;3806;52.270;10.544;2024-02-26T01:08:40;3.03;;;2.05;;
7529;SDS011;3806;52.270;10.544;2024-02-26T01:11:05;3.47;;;2.05;;
7529;SDS011;3806;52.270;10.544;2024-02-26T01:13:31;3.63;;;2.67;;
7529;SDS011;3806;52.270;10.544;2024-02-26T01:15:56;3.92;;;1.60;;
7529;SDS011;3806;52.270;10.544;2024-02-26T01:18:22;1.92;;;1.45;;
7529;SDS011;3806;52.270;10.544;2024-02-26T01:20:48;2.88;;;2.10;;
7529;SDS011;3806;52.270;10.544;2024-02-26T01:23:13;1.70;;;1.35;;
7529;SDS011;3806;52.270;10.544;2024-02-26T01:25:39;1.95;;;1.60;;
7529;SDS011;3806;52.270;10.544;2024-02-26T01:28:04;2.35;;;1.42;;
7529;SDS011;3806;52.270;10.544;2024-02-26T01:30:30;1.63;;;1.50;;
7529;SDS011;3806;52.270;10.544;2024-02-26T01:32:56;3.13;;;1.73;;
7529;SDS011;3806;52.270;10.544;2024-02-26T01:35:22;1.38;;;1.20;;
7529;SDS011;3806;52.270;10.544;2024-02-26T01:37:47;1.35;;;1.25;;
7529;SDS011;3806;52.270;10.544;2024-02-26T01:40:13;2.65;;;1.27;;
7529;SDS011;3806;52.270;10.544;2024-02-26T01:42:42;2.38;;;1.45;;
7529;SDS011;3806;52.270;10.544;2024-02-26T01:45:10;2.03;;;1.30;;
7529;SDS011;3806;52.270;10.544;2024-02-26T01:47:41;1.65;;;1.30;;
7529;SDS011;3806;52.270;10.544;2024-02-26T01:50:06;2.20;;;1.48;;
7529;SDS011;3806;52.270;10.544;2024-02-26T01:52:33;2.90;;;1.75;;
7529;SDS011;3806;52.270;10.544;2024-02-26T01:54:59;2.38;;;1.55;;
7529;SDS011;3806;52.270;10.544;2024-02-26T01:57:26;4.47;;;1.95;;
7529;SDS011;3806;52.270;10.544;2024-02-26T01:59:52;2.70;;;1.50;;
7529;SDS011;3806;52.270;10.544;2024-02-26T02:02:18;2.00;;;1.50;;
7529;SDS011;3806;52.270;10.544;2024-02-26T02:04:44;2.67;;;1.63;;
7529;SDS011;3806;52.270;10.544;2024-02-26T02:07:09;2.50;;;1.60;;
7529;SDS011;3806;52.270;10.544;2024-02-26T02:09:35;2.92;;;1.20;;
7529;SDS011;3806;52.270;10.544;2024-02-26T02:12:01;3.78;;;2.30;;
7529;SDS011;3806;52.270;10.544;2024-02-26T02:14:27;2.53;;;1.48;;
7529;SDS011;3806;52.270;10.544;2024-02-26T02:16:52;1.42;;;1.27;;
7529;SDS011;3806;52.270;10.544;2024-02-26T02:19:18;2.55;;;1.55;;
7529;SDS011;3806;52.270;10.544;2024-02-26T02:21:44;1.90;;;1.30;;
7529;SDS011;3806;52.270;10.544;2024-02-26T02:24:09;1.63;;;1.33;;
7529;SDS011;3806;52.270;10.544;2024-02-26T02:26:34;1.63;;;1.38;;
7529;SDS011;3806;52.270;10.544;2024-02-26T02:29:00;2.30;;;1.58;;
7529;SDS011;3806;52.270;10.544;2024-02-26T02:31:27;2.35;;;1.42;;
7529;SDS011;3806;52.270;10.544;2024-02-26T02:33:53;1.50;;;1.17;;
7529;SDS011;3806;52.270;10.544;2024-02-26T02:36:18;2.42;;;1.30;;
7529;SDS011;3806;52.270;10.544;2024-02-26T02:38:50;1.88;;;1.00;;
7529;SDS011;3806;52.270;10.544;2024-02-26T02:41:18;1.85;;;1.30;;
7529;SDS011;3806;52.270;10.544;2024-02-26T02:43:44;2.25;;;1.52;;
7529;SDS011;3806;52.270;10.544;2024-02-26T02:46:09;1.52;;;1.42;;
7529;SDS011;3806;52.270;10.544;2024-02-26T02:48:36;2.85;;;1.40;;
7529;SDS011;3806;52.270;10.544;2024-02-26T02:51:02;2.60;;;1.55;;
7529;SDS011;3806;52.270;10.544;2024-02-26T02:53:28;2.08;;;1.30;;
7529;SDS011;3806;52.270;10.544;2024-02-26T02:55:53;2.20;;;1.52;;
7529;SDS011;3806;52.270;10.544;2024-02-26T02:58:19;1.70;;;1.30;;
7529;SDS011;3806;52.270;10.544;2024-02-26T03:00:44;2.75;;;1.75;;
7529;SDS011;3806;52.270;10.544;2024-02-26T03:03:10;1.48;;;1.38;;
7529;SDS011;3806;52.270;10.544;2024-02-26T03:05:36;4.47;;;1.63;;
7529;SDS011;3806;52.270;10.544;2024-02-26T03:08:01;2.17;;;1.55;;
7529;SDS011;3806;52.270;10.544;2024-02-26T03:10:26;2.90;;;1.65;;
7529;SDS011;3806;52.270;10.544;2024-02-26T03:12:53;1.40;;;1.30;;
7529;SDS011;3806;52.270;10.544;2024-02-26T03:15:18;2.22;;;1.60;;
7529;SDS011;3806;52.270;10.544;2024-02-26T03:17:44;1.60;;;1.20;;
7529;SDS011;3806;52.270;10.544;2024-02-26T03:20:09;2.83;;;1.70;;
7529;SDS011;3806;52.270;10.544;2024-02-26T03:22:35;1.85;;;1.55;;
7529;SDS011;3806;52.270;10.544;2024-02-26T03:25:01;2.42;;;1.50;;
7529;SDS011;3806;52.270;10.544;2024-02-26T03:27:26;1.80;;;1.42;;
7529;SDS011;3806;52.270;10.544;2024-02-26T03:29:52;1.27;;;1.10;;
7529;SDS011;3806;52.270;10.544;2024-02-26T03:32:17;2.25;;;1.63;;
7529;SDS011;3806;52.270;10.544;2024-02-26T03:34:43;3.03;;;1.70;;
7529;SDS011;3806;52.270;10.544;2024-02-26T03:37:09;3.88;;;1.80;;
7529;SDS011;3806;52.270;10.544;2024-02-26T03:39:35;2.65;;;1.58;;
7529;SDS011;3806;52.270;10.544;2024-02-26T03:42:01;2.13;;;1.42;;
7529;SDS011;3806;52.270;10.544;2024-02-26T03:44:27;2.25;;;1.75;;
7529;SDS011;3806;52.270;10.544;2024-02-26T03:46:52;2.80;;;1.98;;
7529;SDS011;3806;52.270;10.544;2024-02-26T03:49:18;2.17;;;1.55;;
7529;SDS011;3806;52.270;10.544;2024-02-26T03:51:44;1.50;;;1.40;;
7529;SDS011;3806;52.270;10.544;2024-02-26T03:54:09;3.33;;;1.58;;
7529;SDS011;3806;52.270;10.544;2024-02-26T03:56:35;2.55;;;1.80;;
7529;SDS011;3806;52.270;10.544;2024-02-26T03:59:00;2.92;;;1.80;;
7529;SDS011;3806;52.270;10.544;2024-02-26T04:01:27;4.28;;;1.80;;
7529;SDS011;3806;52.270;10.544;2024-02-26T04:03:53;1.33;;;1.15;;
7529;SDS011;3806;52.270;10.544;2024-02-26T04:06:19;2.05;;;1.77;;
7529;SDS011;3806;52.270;10.544;2024-02-26T04:08:46;3.85;;;1.77;;
7529;SDS011;3806;52.270;10.544;2024-02-26T04:11:12;2.30;;;1.77;;
7529;SDS011;3806;52.270;10.544;2024-02-26T04:13:38;1.98;;;1.75;;
7529;SDS011;3806;52.270;10.544;2024-02-26T04:16:04;5.30;;;1.55;;
7529;SDS011;3806;52.270;10.544;2024-02-26T04:18:30;2.40;;;1.40;;
7529;SDS011;3806;52.270;10.544;2024-02-26T04:20:56;1.33;;;1.23;;
7529;SDS011;3806;52.270;10.544;2024-02-26T04:23:22;3.47;;;2.10;;
7529;SDS011;3806;52.270;10.544;2024-02-26T04:25:47;2.88;;;1.70;;
7529;SDS011;3806;52.270;10.544;2024-02-26T04:28:13;1.88;;;1.35;;
7529;SDS011;3806;52.270;10.544;2024-02-26T04:30:38;2.03;;;1.77;;
7529;SDS011;3806;52.270;10.544;2024-02-26T04:33:04;4.75;;;1.63;;
7529;SDS011;3806;52.270;10.544;2024-02-26T04:35:30;2.72;;;1.80;;
7529;SDS011;3806;52.270;10.544;2024-02-26T04:37:55;2.33;;;1.90;;
7529;SDS011;3806;52.270;10.544;2024-02-26T04:40:21;3.38;;;2.38;;
7529;SDS011;3806;52.270;10.544;2024-02-26T04:42:46;1.80;;;1.70;;
7529;SDS011;3806;52.270;10.544;2024-02-26T04:45:12;3.05;;;2.08;;
7529;SDS011;3806;52.270;10.544;2024-02-26T04:47:37;2.65;;;2.00;;
7529;SDS011;3806;52.270;10.544;2024-02-26T04:50:03;3.45;;;1.90;;
7529;SDS011;3806;52.270;10.544;2024-02-26T04:52:29;3.92;;;2.05;;
7529;SDS011;3806;52.270;10.544;2024-02-26T04:54:54;4.65;;;3.20;;
7529;SDS011;3806;52.270;10.544;2024-02-26T04:57:21;4.80;;;2.63;;
7529;SDS011;3806;52.270;10.544;2024-02-26T04:59:46;3.58;;;2.50;;
7529;SDS011;3806;52.270;10.544;2024-02-26T05:02:12;2.53;;;1.90;;
7529;SDS011;3806;52.270;10.544;2024-02-26T05:04:38;5.03;;;2.28;;
7529;SDS011;3806;52.270;10.544;2024-02-26T05:07:03;2.58;;;1.83;;
7529;SDS011;3806;52.270;10.544;2024-02-26T05:09:29;2.15;;;1.75;;
7529;SDS011;3806;52.270;10.544;2024-02-26T05:11:55;2.92;;;1.95;;
7529;SDS011;3806;52.270;10.544;2024-02-26T05:14:20;3.47;;;1.80;;
7529;SDS011;3806;52.270;10.544;2024-02-26T05:16:46;3.65;;;2.10;;
7529;SDS011;3806;52.270;10.544;2024-02-26T05:19:12;5.07;;;1.98;;
7529;SDS011;3806;52.270;10.544;2024-02-26T05:21:37;3.80;;;2.25;;
7529;SDS011;3806;52.270;10.544;2024-02-26T05:24:03;4.53;;;2.30;;
7529;SDS011;3806;52.270;10.544;2024-02-26T05:26:29;3.38;;;2.20;;
7529;SDS011;3806;52.270;10.544;2024-02-26T05:28:54;2.53;;;1.90;;
7529;SDS011;3806;52.270;10.544;2024-02-26T05:31:24;3.15;;;2.17;;
7529;SDS011;3806;52.270;10.544;2024-02-26T05:33:50;3.88;;;2.53;;
7529;SDS011;3806;52.270;10.544;2024-02-26T05:36:19;3.95;;;2.20;;
7529;SDS011;3806;52.270;10.544;2024-02-26T05:38:47;3.20;;;2.30;;
7529;SDS011;3806;52.270;10.544;2024-02-26T05:41:12;3.47;;;2.40;;
7529;SDS011;3806;52.270;10.544;2024-02-26T05:43:40;6.90;;;2.75;;
7529;SDS011;3806;52.270;10.544;2024-02-26T05:46:06;2.97;;;2.17;;
7529;SDS011;3806;52.270;10.544;2024-02-26T05:48:31;3.65;;;2.75;;
7529;SDS011;3806;52.270;10.544;2024-02-26T05:50:57;4.07;;;2.65;;
7529;SDS011;3806;52.270;10.544;2024-02-26T05:53:22;4.30;;;2.55;;
7529;SDS011;3806;52.270;10.544;2024-02-26T05:55:48;4.32;;;2.47;;
7529;SDS011;3806;52.270;10.544;2024-02-26T05:58:13;4.13;;;3.05;;
7529;SDS011;3806;52.270;10.544;2024-02-26T06:00:39;3.35;;;2.40;;
7529;SDS011;3806;52.270;10.544;2024-02-26T06:03:04;4.85;;;3.22;;
7529;SDS011;3806;52.270;10.544;2024-02-26T06:05:30;4.43;;;3.03;;
7529;SDS011;3806;52.270;10.544;2024-02-26T06:07:56;3.75;;;3.10;;
7529;SDS011;3806;52.270;10.544;2024-02-26T06:10:21;3.80;;;2.97;;
7529;SDS011;3806;52.270;10.544;2024-02-26T06:12:47;3.38;;;2.60;;
7529;SDS011;3806;52.270;10.544;2024-02-26T06:15:13;4.15;;;2.60;;
7529;SDS011;3806;52.270;10.544;2024-02-26T06:17:38;4.38;;;2.72;;
7529;SDS011;3806;52.270;10.544;2024-02-26T06:20:04;5.85;;;2.90;;
7529;SDS011;3806;52.270;10.544;2024-02-26T06:22:31;4.70;;;2.92;;
7529;SDS011;3806;52.270;10.544;2024-02-26T06:24:57;4.72;;;2.60;;
7529;SDS011;3806;52.270;10.544;2024-02-26T06:27:23;4.15;;;2.97;;
7529;SDS011;3806;52.270;10.544;2024-02-26T06:29:49;4.53;;;3.03;;
7529;SDS011;3806;52.270;10.544;2024-02-26T06:32:14;5.47;;;3.28;;
7529;SDS011;3806;52.270;10.544;2024-02-26T06:34:40;3.70;;;3.15;;
7529;SDS011;3806;52.270;10.544;2024-02-26T06:37:07;4.97;;;3.17;;
7529;SDS011;3806;52.270;10.544;2024-02-26T06:39:33;4.70;;;3.13;;
7529;SDS011;3806;52.270;10.544;2024-02-26T06:41:58;5.80;;;3.05;;
7529;SDS011;3806;52.270;10.544;2024-02-26T06:44:27;5.70;;;3.00;;
7529;SDS011;3806;52.270;10.544;2024-02-26T06:46:57;6.03;;;3.38;;
7529;SDS011;3806;52.270;10.544;2024-02-26T06:49:26;5.65;;;3.83;;
7529;SDS011;3806;52.270;10.544;2024-02-26T06:51:51;7.80;;;3.50;;
7529;SDS011;3806;52.270;10.544;2024-02-26T06:54:17;3.67;;;2.45;;
7529;SDS011;3806;52.270;10.544;2024-02-26T06:56:43;5.32;;;3.15;;
7529;SDS011;3806;52.270;10.544;2024-02-26T06:59:08;4.47;;;2.90;;
7529;SDS011;3806;52.270;10.544;2024-02-26T07:01:34;7.85;;;3.08;;
7529;SDS011;3806;52.270;10.544;2024-02-26T07:03:59;6.10;;;3.03;;
7529;SDS011;3806;52.270;10.544;2024-02-26T07:06:25;4.65;;;2.95;;
7529;SDS011;3806;52.270;10.544;2024-02-26T07:08:52;5.03;;;3.17;;
7529;SDS011;3806;52.270;10.544;2024-02-26T07:11:17;4.65;;;3.50;;
7529;SDS011;3806;52.270;10.544;2024-02-26T07:13:44;4.28;;;3.28;;
7529;SDS011;3806;52.270;10.544;2024-02-26T07:16:10;4.47;;;3.08;;
7529;SDS011;3806;52.270;10.544;2024-02-26T07:18:36;4.57;;;3.00;;
7529;SDS011;3806;52.270;10.544;2024-02-26T07:21:02;4.28;;;3.22;;
7529;SDS011;3806;52.270;10.544;2024-02-26T07:23:28;3.88;;;3.25;;
7529;SDS011;3806;52.270;10.544;2024-02-26T07:25:54;5.97;;;3.35;;
7529;SDS011;3806;52.270;10.544;2024-02-26T07:28:19;4.07;;;2.70;;
7529;SDS011;3806;52.270;10.544;2024-02-26T07:30:45;3.50;;;2.67;;
7529;SDS011;3806;52.270;10.544;2024-02-26T07:33:10;4.72;;;3.20;;
7529;SDS011;3806;52.270;10.544;2024-02-26T07:35:36;3.50;;;2.75;;
7529;SDS011;3806;52.270;10.544;2024-02-26T07:38:03;4.00;;;2.75;;
7529;SDS011;3806;52.270;10.544;2024-02-26T07:40:32;3.97;;;2.58;;
7529;SDS011;3806;52.270;10.544;2024-02-26T07:42:57;5.03;;;2.88;;
7529;SDS011;3806;52.270;10.544;2024-02-26T07:45:23;3.50;;;2.60;;
7529;SDS011;3806;52.270;10.544;2024-02-26T07:47:48;4.35;;;3.13;;
7529;SDS011;3806;52.270;10.544;2024-02-26T07:50:16;5.75;;;3.20;;
7529;SDS011;3806;52.270;10.544;2024-02-26T07:52:41;5.82;;;3.08;;
7529;SDS011;3806;52.270;10.544;2024-02-26T07:55:07;4.53;;;2.95;;
7529;SDS011;3806;52.270;10.544;2024-02-26T07:57:32;3.70;;;3.05;;
7529;SDS011;3806;52.270;10.544;2024-02-26T08:00:02;8.07;;;3.20;;
7529;SDS011;3806;52.270;10.544;2024-02-26T08:02:28;5.53;;;3.25;;
7529;SDS011;3806;52.270;10.544;2024-02-26T08:04:53;4.88;;;3.08;;
7529;SDS011;3806;52.270;10.544;2024-02-26T08:07:19;6.28;;;2.72;;
7529;SDS011;3806;52.270;10.544;2024-02-26T08:09:46;3.67;;;2.28;;
7529;SDS011;3806;52.270;10.544;2024-02-26T08:12:11;4.68;;;2.58;;
7529;SDS011;3806;52.270;10.544;2024-02-26T08:14:37;2.72;;;2.30;;
7529;SDS011;3806;52.270;10.544;2024-02-26T08:17:02;7.63;;;2.67;;
7529;SDS011;3806;52.270;10.544;2024-02-26T08:19:28;3.95;;;2.50;;
7529;SDS011;3806;52.270;10.544;2024-02-26T08:21:54;4.88;;;3.00;;
7529;SDS011;3806;52.270;10.544;2024-02-26T08:24:19;3.70;;;2.20;;
7529;SDS011;3806;52.270;10.544;2024-02-26T08:26:45;3.65;;;2.45;;
7529;SDS011;3806;52.270;10.544;2024-02-26T08:29:11;2.40;;;2.00;;
7529;SDS011;3806;52.270;10.544;2024-02-26T08:31:36;2.60;;;1.98;;
7529;SDS011;3806;52.270;10.544;2024-02-26T08:34:02;3.72;;;1.95;;
7529;SDS011;3806;52.270;10.544;2024-02-26T08:36:28;4.60;;;2.53;;
7529;SDS011;3806;52.270;10.544;2024-02-26T08:38:55;5.72;;;2.33;;
7529;SDS011;3806;52.270;10.544;2024-02-26T08:41:20;1.95;;;1.52;;
7529;SDS011;3806;52.270;10.544;2024-02-26T08:43:45;5.18;;;2.08;;
7529;SDS011;3806;52.270;10.544;2024-02-26T08:46:12;1.73;;;1.40;;
7529;SDS011;3806;52.270;10.544;2024-02-26T08:48:38;3.42;;;1.92;;
7529;SDS011;3806;52.270;10.544;2024-02-26T08:51:07;3.50;;;2.10;;
7529;SDS011;3806;52.270;10.544;2024-02-26T08:53:33;2.53;;;1.95;;
7529;SDS011;3806;52.270;10.544;2024-02-26T08:55:59;2.55;;;2.10;;
7529;SDS011;3806;52.270;10.544;2024-02-26T08:58:25;6.53;;;2.22;;
7529;SDS011;3806;52.270;10.544;2024-02-26T09:00:51;3.50;;;2.00;;
7529;SDS011;3806;52.270;10.544;2024-02-26T09:03:17;5.32;;;2.28;;
7529;SDS011;3806;52.270;10.544;2024-02-26T09:05:42;3.97;;;2.05;;
7529;SDS011;3806;52.270;10.544;2024-02-26T09:08:08;2.20;;;1.70;;
7529;SDS011;3806;52.270;10.544;2024-02-26T09:10:33;7.95;;;2.10;;
7529;SDS011;3806;52.270;10.544;2024-02-26T09:12:59;2.17;;;1.73;;
7529;SDS011;3806;52.270;10.544;2024-02-26T09:15:24;2.92;;;1.83;;
7529;SDS011;3806;52.270;10.544;2024-02-26T09:17:50;4.80;;;1.70;;
7529;SDS011;3806;52.270;10.544;2024-02-26T09:20:16;2.03;;;1.60;;
7529;SDS011;3806;52.270;10.544;2024-02-26T09:22:45;2.17;;;1.70;;
7529;SDS011;3806;52.270;10.544;2024-02-26T09:25:11;2.70;;;1.73;;
7529;SDS011;3806;52.270;10.544;2024-02-26T09:27:37;4.35;;;2.00;;
7529;SDS011;3806;52.270;10.544;2024-02-26T09:30:02;3.72;;;1.80;;
7529;SDS011;3806;52.270;10.544;2024-02-26T09:32:28;3.45;;;1.60;;
7529;SDS011;3806;52.270;10.544;2024-02-26T09:34:54;2.30;;;1.65;;
7529;SDS011;3806;52.270;10.544;2024-02-26T09:37:19;2.78;;;2.00;;
7529;SDS011;3806;52.270;10.544;2024-02-26T09:39:45;2.55;;;1.75;;
7529;SDS011;3806;52.270;10.544;2024-02-26T09:42:11;3.00;;;1.95;;
7529;SDS011;3806;52.270;10.544;2024-02-26T09:44:39;3.20;;;2.00;;
7529;SDS011;3806;52.270;10.544;2024-02-26T09:47:06;3.08;;;1.98;;
7529;SDS011;3806;52.270;10.544;2024-02-26T09:49:35;2.03;;;1.83;;
7529;SDS011;3806;52.270;10.544;2024-02-26T09:52:01;4.03;;;1.80;;
7529;SDS011;3806;52.270;10.544;2024-02-26T09:54:27;3.88;;;1.88;;
7529;SDS011;3806;52.270;10.544;2024-02-26T09:56:56;2.63;;;1.70;;
7529;SDS011;3806;52.270;10.544;2024-02-26T09:59:34;3.15;;;1.90;;
7529;SDS011;3806;52.270;10.544;2024-02-26T10:02:05;2.55;;;1.60;;
7529;SDS011;3806;52.270;10.544;2024-02-26T10:04:42;2.92;;;1.77;;
7529;SDS011;3806;52.270;10.544;2024-02-26T10:07:09;3.72;;;2.67;;
7529;SDS011;3806;52.270;10.544;2024-02-26T10:09:36;3.08;;;1.90;;
7529;SDS011;3806;52.270;10.544;2024-02-26T10:12:02;6.53;;;2.25;;
7529;SDS011;3806;52.270;10.544;2024-02-26T10:14:29;2.45;;;1.63;;
7529;SDS011;3806;52.270;10.544;2024-02-26T10:16:55;2.10;;;1.60;;
7529;SDS011;3806;52.270;10.544;2024-02-26T10:19:25;2.65;;;1.58;;
7529;SDS011;3806;52.270;10.544;2024-02-26T10:21:57;4.88;;;1.95;;
7529;SDS011;3806;52.270;10.544;2024-02-26T10:24:24;3.03;;;1.70;;
7529;SDS011;3806;52.270;10.544;2024-02-26T10:26:50;5.50;;;2.10;;
7529;SDS011;3806;52.270;10.544;2024-02-26T10:29:17;2.65;;;2.13;;
7529;SDS011;3806;52.270;10.544;2024-02-26T10:31:44;4.10;;;2.00;;
7529;SDS011;3806;52.270;10.544;2024-02-26T10:34:10;5.57;;;2.22;;
7529;SDS011;3806;52.270;10.544;2024-02-26T10:36:35;3.70;;;2.13;;
7529;SDS011;3806;52.270;10.544;2024-02-26T10:39:02;3.22;;;2.17;;
7529;SDS011;3806;52.270;10.544;2024-02-26T10:41:29;4.55;;;2.30;;
7529;SDS011;3806;52.270;10.544;2024-02-26T10:43:55;3.92;;;2.50;;
7529;SDS011;3806;52.270;10.544;2024-02-26T10:46:20;10.70;;;3.05;;
7529;SDS011;3806;52.270;10.544;2024-02-26T10:48:52;3.83;;;2.80;;
7529;SDS011;3806;52.270;10.544;2024-02-26T10:51:26;4.60;;;2.70;;
7529;SDS011;3806;52.270;10.544;2024-02-26T10:53:55;4.05;;;2.28;;
7529;SDS011;3806;52.270;10.544;2024-02-26T10:56:29;4.65;;;2.50;;
7529;SDS011;3806;52.270;10.544;2024-02-26T10:58:58;4.93;;;2.58;;
7529;SDS011;3806;52.270;10.544;2024-02-26T11:01:24;4.22;;;2.55;;
7529;SDS011;3806;52.270;10.544;2024-02-26T11:03:52;10.73;;;3.50;;
7529;SDS011;3806;52.270;10.544;2024-02-26T11:06:23;4.82;;;2.88;;
7529;SDS011;3806;52.270;10.544;2024-02-26T11:08:51;5.45;;;2.75;;
7529;SDS011;3806;52.270;10.544;2024-02-26T11:11:17;3.58;;;2.67;;
7529;SDS011;3806;52.270;10.544;2024-02-26T11:13:44;4.22;;;2.60;;
7529;SDS011;3806;52.270;10.544;2024-02-26T11:16:19;5.13;;;2.55;;
7529;SDS011;3806;52.270;10.544;2024-02-26T11:18:47;5.10;;;2.92;;
7529;SDS011;3806;52.270;10.544;2024-02-26T11:21:16;3.92;;;2.90;;
7529;SDS011;3806;52.270;10.544;2024-02-26T11:23:43;3.42;;;2.70;;
7529;SDS011;3806;52.270;10.544;2024-02-26T11:26:09;5.90;;;3.13;;
7529;SDS011;3806;52.270;10.544;2024-02-26T11:28:36;4.28;;;2.67;;
7529;SDS011;3806;52.270;10.544;2024-02-26T11:31:03;4.55;;;3.20;;
7529;SDS011;3806;52.270;10.544;2024-02-26T11:33:30;3.40;;;2.85;;
7529;SDS011;3806;52.270;10.544;2024-02-26T11:35:55;10.80;;;3.47;;
7529;SDS011;3806;52.270;10.544;2024-02-26T11:38:22;8.32;;;4.03;;
7529;SDS011;3806;52.270;10.544;2024-02-26T11:40:50;6.80;;;3.42;;
7529;SDS011;3806;52.270;10.544;2024-02-26T11:43:17;5.35;;;2.80;;
7529;SDS011;3806;52.270;10.544;2024-02-26T11:48:13;5.38;;;3.05;;
7529;SDS011;3806;52.270;10.544;2024-02-26T11:50:46;6.57;;;3.30;;
7529;SDS011;3806;52.270;10.544;2024-02-26T11:58:42;7.30;;;3.47;;
7529;SDS011;3806;52.270;10.544;2024-02-26T12:04:06;8.15;;;3.85;;
7529;SDS011;3806;52.270;10.544;2024-02-26T12:06:41;5.35;;;3.25;;
7529;SDS011;3806;52.270;10.544;2024-02-26T12:09:10;4.53;;;3.17;;
7529;SDS011;3806;52.270;10.544;2024-02-26T12:11:38;6.28;;;3.42;;
7529;SDS011;3806;52.270;10.544;2024-02-26T12:14:05;6.68;;;4.38;;
7529;SDS011;3806;52.270;10.544;2024-02-26T12:16:36;7.50;;;3.70;;
7529;SDS011;3806;52.270;10.544;2024-02-26T12:19:08;6.10;;;3.45;;
7529;SDS011;3806;52.270;10.544;2024-02-26T12:21:37;12.70;;;4.93;;
7529;SDS011;3806;52.270;10.544;2024-02-26T12:24:12;4.78;;;3.20;;
7529;SDS011;3806;52.270;10.544;2024-02-26T12:26:40;5.85;;;4.13;;
7529;SDS011;3806;52.270;10.544;2024-02-26T12:29:06;7.60;;;3.58;;
7529;SDS011;3806;52.270;10.544;2024-02-26T12:31:32;6.03;;;3.08;;
7529;SDS011;3806;52.270;10.544;2024-02-26T12:33:58;7.43;;;3.50;;
7529;SDS011;3806;52.270;10.544;2024-02-26T12:36:25;6.47;;;3.22;;
7529;SDS011;3806;52.270;10.544;2024-02-26T12:38:51;6.57;;;4.18;;
7529;SDS011;3806;52.270;10.544;2024-02-26T12:41:17;5.70;;;3.30;;
7529;SDS011;3806;52.270;10.544;2024-02-26T12:43:42;10.18;;;3.78;;
7529;SDS011;3806;52.270;10.544;2024-02-26T12:46:08;8.02;;;3.70;;
7529;SDS011;3806;52.270;10.544;2024-02-26T12:48:33;9.25;;;4.40;;
7529;SDS011;3806;52.270;10.544;2024-02-26T12:51:00;7.03;;;3.85;;
7529;SDS011;3806;52.270;10.544;2024-02-26T12:53:26;5.88;;;3.97;;
7529;SDS011;3806;52.270;10.544;2024-02-26T12:55:52;5.93;;;3.60;;
7529;SDS011;3806;52.270;10.544;2024-02-26T12:58:19;9.00;;;3.85;;
7529;SDS011;3806;52.270;10.544;2024-02-26T13:00:49;9.68;;;4.10;;
7529;SDS011;3806;52.270;10.544;2024-02-26T13:03:18;6.00;;;3.55;;
7529;SDS011;3806;52.270;10.544;2024-02-26T13:05:44;7.47;;;3.58;;
7529;SDS011;3806;52.270;10.544;2024-02-26T13:08:16;7.35;;;3.83;;
7529;SDS011;3806;52.270;10.544;2024-02-26T13:10:43;8.77;;;3.90;;
7529;SDS011;3806;52.270;10.544;2024-02-26T13:13:10;8.88;;;4.25;;
7529;SDS011;3806;52.270;10.544;2024-02-26T13:15:35;6.78;;;4.25;;
7529;SDS011;3806;52.270;10.544;2024-02-26T13:18:08;7.40;;;4.55;;
7529;SDS011;3806;52.270;10.544;2024-02-26T13:20:34;9.30;;;4.82;;
7529;SDS011;3806;52.270;10.544;2024-02-26T13:23:04;8.32;;;5.30;;
7529;SDS011;3806;52.270;10.544;2024-02-26T13:25:32;8.80;;;4.88;;
7529;SDS011;3806;52.270;10.544;2024-02-26T13:30:56;7.72;;;4.30;;
7529;SDS011;3806;52.270;10.544;2024-02-26T13:33:23;7.28;;;4.30;;
7529;SDS011;3806;52.270;10.544;2024-02-26T13:35:50;8.15;;;4.18;;
7529;SDS011;3806;52.270;10.544;2024-02-26T13:38:15;6.00;;;3.90;;
7529;SDS011;3806;52.270;10.544;2024-02-26T13:40:41;11.55;;;4.50;;
7529;SDS011;3806;52.270;10.544;2024-02-26T13:43:07;7.57;;;4.93;;
7529;SDS011;3806;52.270;10.544;2024-02-26T13:45:36;9.07;;;4.53;;
7529;SDS011;3806;52.270;10.544;2024-02-26T13:48:03;7.18;;;4.50;;
7529;SDS011;3806;52.270;10.544;2024-02-26T13:50:30;4.93;;;3.50;;
7529;SDS011;3806;52.270;10.544;2024-02-26T13:52:55;7.38;;;4.75;;
7529;SDS011;3806;52.270;10.544;2024-02-26T13:55:22;8.15;;;5.03;;
7529;SDS011;3806;52.270;10.544;2024-02-26T13:57:50;7.72;;;4.47;;
7529;SDS011;3806;52.270;10.544;2024-02-26T14:00:18;17.77;;;5.78;;
7529;SDS011;3806;52.270;10.544;2024-02-26T14:02:44;11.82;;;5.30;;
7529;SDS011;3806;52.270;10.544;2024-02-26T14:05:10;8.07;;;4.75;;
7529;SDS011;3806;52.270;10.544;2024-02-26T14:07:35;7.40;;;4.18;;
7529;SDS011;3806;52.270;10.544;2024-02-26T14:10:01;8.18;;;4.97;;
7529;SDS011;3806;52.270;10.544;2024-02-26T14:12:27;6.82;;;4.25;;
7529;SDS011;3806;52.270;10.544;2024-02-26T14:14:53;5.85;;;3.88;;
7529;SDS011;3806;52.270;10.544;2024-02-26T14:17:20;6.45;;;4.65;;
7529;SDS011;3806;52.270;10.544;2024-02-26T14:19:46;6.40;;;4.22;;
7529;SDS011;3806;52.270;10.544;2024-02-26T14:22:13;7.57;;;4.45;;
7529;SDS011;3806;52.270;10.544;2024-02-26T14:24:40;7.82;;;4.50;;
7529;SDS011;3806;52.270;10.544;2024-02-26T14:27:07;8.82;;;4.70;;
7529;SDS011;3806;52.270;10.544;2024-02-26T14:29:34;14.60;;;5.15;;
7529;SDS011;3806;52.270;10.544;2024-02-26T14:32:00;7.78;;;4.80;;
7529;SDS011;3806;52.270;10.544;2024-02-26T14:34:26;10.32;;;4.70;;
7529;SDS011;3806;52.270;10.544;2024-02-26T14:36:51;6.32;;;4.53;;
7529;SDS011;3806;52.270;10.544;2024-02-26T14:39:17;9.52;;;5.10;;
7529;SDS011;3806;52.270;10.544;2024-02-26T14:41:42;8.90;;;4.75;;
7529;SDS011;3806;52.270;10.544;2024-02-26T14:44:08;9.27;;;5.03;;
7529;SDS011;3806;52.270;10.544;2024-02-26T14:46:33;8.70;;;4.57;;
7529;SDS011;3806;52.270;10.544;2024-02-26T14:48:59;6.55;;;4.72;;
7529;SDS011;3806;52.270;10.544;2024-02-26T14:51:24;6.50;;;4.45;;
7529;SDS011;3806;52.270;10.544;2024-02-26T14:53:50;6.30;;;4.35;;
7529;SDS011;3806;52.270;10.544;2024-02-26T14:56:15;6.78;;;4.15;;
7529;SDS011;3806;52.270;10.544;2024-02-26T14:58:41;7.47;;;4.75;;
7529;SDS011;3806;52.270;10.544;2024-02-26T15:01:06;9.13;;;4.57;;
7529;SDS011;3806;52.270;10.544;2024-02-26T15:03:32;6.47;;;4.70;;
7529;SDS011;3806;52.270;10.544;2024-02-26T15:05:58;8.20;;;4.97;;
7529;SDS011;3806;52.270;10.544;2024-02-26T15:08:23;7.60;;;4.90;;